createdAt,value
2018-04-27T08:42:22.257Z,2655.00
2018-04-27T08:43:06.741Z,2413.13
2018-04-27T08:44:06.754Z,2323.13
2018-04-27T08:45:06.765Z,2238.75
2018-04-27T08:46:06.818Z,2458.13
2018-04-27T08:47:06.781Z,2756.25
2018-04-27T08:48:06.790Z,2812.50
2018-04-27T08:49:07.197Z,3166.88
2018-04-27T08:50:06.807Z,2846.25
2018-04-27T08:51:17.763Z,2773.13
2018-04-27T08:52:06.827Z,2604.38
2018-04-27T08:53:06.835Z,2896.88
2018-04-27T08:54:06.843Z,3611.25
2018-04-27T08:55:06.850Z,3082.50
2018-04-27T08:56:07.758Z,3431.25
2018-04-27T08:57:06.867Z,2829.38
2018-04-27T08:58:06.878Z,3015.00
2018-04-27T08:59:06.886Z,3206.25
2018-04-27T09:00:06.895Z,2930.63
2018-04-27T09:01:06.948Z,3155.63
2018-04-27T09:02:06.968Z,3211.88
2018-04-27T09:03:06.923Z,3313.13
2018-04-27T09:04:06.931Z,3099.38
2018-04-27T09:05:06.953Z,3144.38
2018-04-27T09:07:38.601Z,3223.13
2018-04-27T09:08:38.569Z,3330.00
2018-04-27T09:09:38.647Z,2998.13
2018-04-27T09:10:38.586Z,2868.75
2018-04-27T09:12:17.727Z,2958.75
2018-04-27T09:12:38.607Z,3195.00
2018-04-27T09:13:38.613Z,3065.63
2018-04-27T09:14:38.643Z,2992.50
2018-04-27T09:15:39.173Z,3088.13
2018-04-27T09:16:49.233Z,2919.38
2018-04-27T09:17:38.648Z,2767.50
2018-04-27T09:18:38.661Z,2716.88
2018-04-27T09:19:38.672Z,2975.63
2018-04-27T09:20:38.685Z,3093.75
2018-04-27T09:21:39.302Z,3082.50
2018-04-27T09:22:38.708Z,2880.00
2018-04-27T09:23:38.710Z,3262.50
2018-04-27T09:24:38.719Z,3166.88
2018-04-27T09:25:38.730Z,3110.63
2018-04-27T09:26:40.854Z,3240.00
2018-04-27T09:27:38.746Z,2902.50
2018-04-27T09:28:38.752Z,2739.38
2018-04-27T09:29:38.767Z,2626.88
2018-04-27T09:30:38.775Z,2773.13
2018-04-27T09:31:39.076Z,2671.88
2018-04-27T09:32:38.797Z,3088.13
2018-04-27T09:33:38.816Z,3206.25
2018-04-27T09:34:38.814Z,3144.38
2018-04-27T09:35:38.838Z,3251.25
2018-04-27T09:36:38.835Z,2868.75
2018-04-27T09:37:49.727Z,2806.88
2018-04-27T09:38:38.845Z,3026.25
2018-04-27T09:39:38.856Z,3048.75
2018-04-27T09:40:38.868Z,2998.13
2018-04-27T09:41:38.876Z,3324.38
2018-04-27T09:42:39.725Z,3020.63
2018-04-27T09:43:38.894Z,3150.00
2018-04-27T09:44:38.904Z,3256.88
2018-04-27T09:45:39.176Z,2975.63
2018-04-27T09:46:38.924Z,2992.50
2018-04-27T09:49:25.700Z,3076.88
2018-04-27T09:50:10.603Z,3133.13
2018-04-27T09:51:10.604Z,3138.75
2018-04-27T09:52:10.691Z,2908.13
2018-04-27T09:53:10.648Z,2868.75
2018-04-27T09:54:10.640Z,2908.13
2018-04-27T09:55:10.662Z,3166.88
2018-04-27T09:56:10.656Z,3071.25
2018-04-27T09:57:10.722Z,3363.75
2018-04-27T09:58:10.675Z,3200.63
2018-04-27T09:59:10.762Z,3195.00
2018-04-27T10:00:10.705Z,3003.75
2018-04-27T10:01:10.704Z,2851.88
2018-04-27T10:02:25.208Z,2773.13
2018-04-27T10:03:10.728Z,2801.25
2018-04-27T10:04:10.735Z,3003.75
2018-04-27T10:05:10.745Z,3065.63
2018-04-27T10:06:10.751Z,3172.50
2018-04-27T10:07:16.201Z,3189.38
2018-04-27T10:08:10.772Z,3127.50
2018-04-27T10:09:10.928Z,3166.88
2018-04-27T10:10:10.906Z,3183.75
2018-04-27T10:11:10.800Z,3240.00
2018-04-27T10:12:10.993Z,2970.00
2018-04-27T10:13:10.820Z,3330.00
2018-04-27T10:14:10.828Z,3352.50
2018-04-27T10:15:10.837Z,3346.88
2018-04-27T10:16:16.202Z,3487.50
2018-04-27T10:17:10.857Z,3375.00
2018-04-27T10:18:10.869Z,3313.13
2018-04-27T10:19:10.878Z,3431.25
2018-04-27T10:20:10.886Z,3200.63
2018-04-27T10:21:16.206Z,3105.00
2018-04-27T10:22:10.911Z,3313.13
2018-04-27T10:23:11.308Z,3380.63
2018-04-27T10:24:10.930Z,3341.25
2018-04-27T10:25:10.936Z,3296.25
2018-04-27T10:26:50.211Z,3161.25
2018-04-27T10:27:10.959Z,3330.00
2018-04-27T10:28:10.968Z,3425.63
2018-04-27T10:29:10.979Z,3403.13
2018-04-27T10:30:10.991Z,3397.50
2018-04-27T10:31:11.036Z,3217.50
2018-04-27T10:32:11.007Z,3082.50
2018-04-27T10:33:11.019Z,3071.25
2018-04-27T10:34:11.027Z,3020.63
2018-04-27T10:35:11.039Z,3088.13
2018-04-27T10:36:11.099Z,2835.00
2018-04-27T10:37:11.446Z,2716.88
2018-04-27T10:38:11.067Z,2626.88
2018-04-27T10:39:11.783Z,2716.88
2018-04-27T10:40:11.088Z,2998.13
2018-04-27T10:41:11.132Z,3195.00
2018-04-27T10:42:11.111Z,3223.13
2018-04-27T10:43:11.110Z,3099.38
2018-04-27T10:44:11.123Z,3150.00
2018-04-27T10:45:11.131Z,3549.38
2018-04-27T10:46:25.203Z,3431.25
2018-04-27T10:47:11.151Z,3144.38
2018-04-27T10:48:11.159Z,3470.63
2018-04-27T10:49:11.173Z,3780.00
2018-04-27T10:50:11.924Z,3875.63
2018-04-27T10:51:11.229Z,3645.00
2018-04-27T10:52:11.198Z,3898.13
2018-04-27T10:53:11.207Z,3892.50
2018-04-27T10:54:11.222Z,2953.13
2018-04-27T10:55:12.173Z,2756.25
2018-04-27T10:56:11.763Z,3296.25
2018-04-27T10:57:11.257Z,3060.00
2018-04-27T10:58:11.260Z,3341.25
2018-04-27T10:59:11.268Z,3622.50
2018-04-27T11:00:11.281Z,3566.25
2018-04-27T11:01:13.216Z,3391.88
2018-04-27T11:02:11.301Z,3408.75
2018-04-27T11:03:11.310Z,3605.63
2018-04-27T11:04:11.321Z,4460.63
2018-04-27T11:05:11.333Z,4123.13
2018-04-27T11:06:11.386Z,4500.00
2018-04-27T11:07:11.363Z,4545.00
2018-04-27T11:08:11.370Z,4460.63
2018-04-27T11:09:11.382Z,4550.63
2018-04-27T11:10:11.393Z,4410.00
2018-04-27T11:11:11.464Z,3960.00
2018-04-27T11:12:11.416Z,3600.00
2018-04-27T11:13:11.433Z,3425.63
2018-04-27T11:14:11.447Z,4005.00
2018-04-27T11:15:11.463Z,3802.50
2018-04-27T11:16:13.223Z,3825.00
2018-04-27T11:17:12.019Z,3853.13
2018-04-27T11:18:12.328Z,3740.63
2018-04-27T11:19:11.504Z,3363.75
2018-04-27T11:20:11.572Z,3268.13
2018-04-27T11:21:11.589Z,3206.25
2018-04-27T11:22:11.541Z,3526.88
2018-04-27T11:23:11.553Z,4078.13
2018-04-27T11:24:11.580Z,4573.13
2018-04-27T11:25:11.581Z,4061.25
2018-04-27T11:26:11.701Z,3943.13
2018-04-27T11:27:11.606Z,3960.00
2018-04-27T11:28:11.617Z,4303.13
2018-04-27T11:29:11.708Z,4005.00
2018-04-27T11:30:11.640Z,3993.75
2018-04-27T11:31:11.698Z,4016.25
2018-04-27T11:32:11.670Z,3431.25
2018-04-27T11:33:11.683Z,3695.63
2018-04-27T11:34:11.694Z,3425.63
2018-04-27T11:35:11.724Z,3408.75
2018-04-27T11:36:26.252Z,3915.00
2018-04-27T11:37:11.735Z,3650.63
2018-04-27T11:38:11.748Z,3279.38
2018-04-27T11:39:11.758Z,3577.50
2018-04-27T11:40:11.772Z,3571.88
2018-04-27T11:41:11.901Z,3600.00
2018-04-27T11:42:11.795Z,3729.38
2018-04-27T11:43:11.812Z,3695.63
2018-04-27T11:44:11.824Z,3903.75
2018-04-27T11:45:11.837Z,3881.25
2018-04-27T11:46:11.897Z,3555.00
2018-04-27T11:47:11.860Z,3526.88
2018-04-27T11:48:12.652Z,3594.38
2018-04-27T11:49:14.184Z,3690.00
2018-04-27T11:50:17.268Z,3841.88
2018-04-27T11:51:11.914Z,3740.63
2018-04-27T11:52:11.945Z,3746.25
2018-04-27T11:53:11.992Z,3605.63
2018-04-27T11:54:11.951Z,4106.25
2018-04-27T11:56:45.313Z,3965.63
2018-04-27T11:57:43.649Z,3931.88
2018-04-27T11:58:43.658Z,3706.88
2018-04-27T11:59:43.679Z,3881.25
2018-04-27T12:01:04.813Z,3785.63
2018-04-27T12:01:43.705Z,3780.00
2018-04-27T12:02:43.710Z,3684.38
2018-04-27T12:03:43.809Z,3684.38
2018-04-27T12:04:43.784Z,4128.75
2018-04-27T12:08:47.151Z,4134.38
2018-04-27T12:10:01.226Z,4168.13
2018-04-27T12:10:47.137Z,4123.13
2018-04-27T12:11:47.143Z,3971.25
2018-04-27T12:12:47.318Z,3633.75
2018-04-27T12:13:47.170Z,3903.75
2018-04-27T12:14:48.261Z,3937.50
2018-04-27T12:15:48.172Z,3808.13
2018-04-27T12:16:47.279Z,3808.13
2018-04-27T12:17:47.222Z,3853.13
2018-04-27T12:18:47.249Z,3751.88
2018-04-27T12:19:58.244Z,3774.38
2018-04-27T12:20:47.278Z,3858.75
2018-04-27T12:21:47.288Z,3875.63
2018-04-27T12:22:47.295Z,3656.25
2018-04-27T12:23:47.304Z,3678.75
2018-04-27T12:24:48.251Z,3965.63
2018-04-27T12:25:47.348Z,4010.63
2018-04-27T12:26:47.347Z,3785.63
2018-04-27T12:27:47.353Z,3903.75
2018-04-27T12:28:47.416Z,3847.50
2018-04-27T12:29:48.238Z,3802.50
2018-04-27T12:30:47.400Z,3813.75
2018-04-27T12:31:47.520Z,3931.88
2018-04-27T12:32:47.424Z,4190.63
2018-04-27T12:33:47.441Z,4083.75
2018-04-27T12:34:47.505Z,3830.63
2018-04-27T12:35:47.589Z,3836.25
2018-04-27T12:36:47.539Z,3836.25
2018-04-27T12:37:47.493Z,3886.88
2018-04-27T12:38:47.536Z,3858.75
2018-04-27T12:39:47.573Z,3847.50
2018-04-27T12:40:47.538Z,3673.13
2018-04-27T12:41:47.548Z,3650.63
2018-04-27T12:42:47.563Z,3718.13
2018-04-27T12:43:47.574Z,3926.25
2018-04-27T12:44:47.666Z,3740.63
2018-04-27T12:45:47.607Z,3836.25
2018-04-27T12:46:47.619Z,3768.75
2018-04-27T12:47:47.628Z,3667.50
2018-04-27T12:48:47.644Z,3673.13
2018-04-27T12:49:52.730Z,3735.00
2018-04-27T12:50:47.670Z,3864.38
2018-04-27T12:51:47.684Z,3841.88
2018-04-27T12:52:47.703Z,3864.38
2018-04-27T12:53:48.341Z,3712.50
2018-04-27T12:54:47.727Z,3622.50
2018-04-27T12:55:47.942Z,3577.50
2018-04-27T12:56:47.749Z,3633.75
2018-04-27T12:57:47.762Z,3712.50
2018-04-27T12:58:47.824Z,3729.38
2018-04-27T12:59:47.783Z,3785.63
2018-04-27T13:00:47.800Z,3796.88
2018-04-27T13:01:47.817Z,3633.75
2018-04-27T13:02:47.827Z,3493.13
2018-04-27T13:03:47.881Z,3588.75
2018-04-27T13:04:47.850Z,3746.25
2018-04-27T13:05:47.868Z,3819.38
2018-04-27T13:06:47.877Z,3723.75
2018-04-27T13:07:47.888Z,3611.25
2018-04-27T13:08:47.950Z,3594.38
2018-04-27T13:09:47.917Z,3498.75
2018-04-27T13:10:47.923Z,3391.88
2018-04-27T13:11:47.954Z,3358.13
2018-04-27T13:12:47.955Z,3510.00
2018-04-27T13:13:48.025Z,3678.75
2018-04-27T13:14:47.979Z,3712.50
2018-04-27T13:15:47.995Z,3746.25
2018-04-27T13:16:48.007Z,3605.63
2018-04-27T13:17:48.024Z,3532.50
2018-04-27T13:18:48.093Z,3678.75
2018-04-27T13:19:48.052Z,3628.13
2018-04-27T13:20:48.696Z,3498.75
2018-04-27T13:21:48.697Z,3510.00
2018-04-27T13:22:48.086Z,3425.63
2018-04-27T13:23:48.152Z,3324.38
2018-04-27T13:24:48.112Z,3335.63
2018-04-27T13:25:48.132Z,3470.63
2018-04-27T13:26:48.144Z,3498.75
2018-04-27T13:27:48.151Z,3448.13
2018-04-27T13:28:48.261Z,3369.38
2018-04-27T13:29:48.180Z,3346.88
2018-04-27T13:30:49.118Z,3189.38
2018-04-27T13:31:48.205Z,3060.00
2018-04-27T13:32:48.216Z,3161.25
2018-04-27T13:33:50.242Z,3262.50
2018-04-27T13:34:48.242Z,3279.38
2018-04-27T13:35:48.899Z,3301.88
2018-04-27T13:36:48.265Z,3403.13
2018-04-27T13:37:48.280Z,3228.75
2018-04-27T13:38:48.356Z,2728.13
2018-04-27T13:39:48.325Z,2486.25
2018-04-27T13:40:48.325Z,2441.25
2018-04-27T13:41:48.463Z,2430.00
2018-04-27T13:42:48.470Z,2289.38
2018-04-27T13:43:48.383Z,2278.13
2018-04-27T13:44:48.370Z,2677.50
2018-04-27T13:45:48.372Z,2998.13
2018-04-27T13:46:48.387Z,3043.13
2018-04-27T13:47:48.444Z,2913.75
2018-04-27T13:48:48.415Z,2902.50
2018-04-27T13:49:48.493Z,2857.50
2018-04-27T13:50:48.431Z,2880.00
2018-04-27T13:51:48.446Z,2947.50
2018-04-27T13:52:48.760Z,2925.00
2018-04-27T13:53:48.468Z,2896.88
2018-04-27T13:54:48.480Z,2919.38
2018-04-27T13:55:48.482Z,3043.13
2018-04-27T13:56:48.501Z,3071.25
2018-04-27T13:57:56.300Z,3003.75
2018-04-27T13:58:48.526Z,2925.00
2018-04-27T13:59:48.538Z,2992.50
2018-04-27T14:00:48.549Z,2936.25
2018-04-27T14:01:48.558Z,3082.50
2018-04-27T14:02:48.654Z,3071.25
2018-04-27T14:03:48.773Z,3043.13
2018-04-27T14:04:48.599Z,3082.50
2018-04-27T14:05:48.612Z,3251.25
2018-04-27T14:06:48.615Z,3133.13
2018-04-27T14:07:49.515Z,2986.88
2018-04-27T14:08:48.691Z,2941.88
2018-04-27T14:09:48.689Z,2936.25
2018-04-27T14:10:48.667Z,2643.75
2018-04-27T14:11:48.687Z,2880.00
2018-04-27T14:12:59.275Z,3037.50
2018-04-27T14:13:48.702Z,3048.75
2018-04-27T14:14:48.714Z,3003.75
2018-04-27T14:15:48.723Z,2868.75
2018-04-27T14:16:48.732Z,2598.75
2018-04-27T14:17:56.889Z,2953.13
2018-04-27T14:18:48.755Z,2891.25
2018-04-27T14:19:48.768Z,2846.25
2018-04-27T14:20:48.780Z,2851.88
2018-04-27T14:21:48.789Z,2801.25
2018-04-27T14:22:48.810Z,2784.38
2018-04-27T14:23:52.290Z,2756.25
2018-04-27T14:24:48.822Z,2964.38
2018-04-27T14:25:48.832Z,2896.88
2018-04-27T14:26:48.886Z,2908.13
2018-04-27T14:27:48.851Z,2829.38
2018-04-27T14:28:59.781Z,2806.88
2018-04-27T14:29:48.873Z,2795.63
2018-04-27T14:30:48.881Z,2795.63
2018-04-27T14:31:48.892Z,2745.00
2018-04-27T14:32:48.902Z,2812.50
2018-04-27T14:33:50.804Z,2857.50
2018-04-27T14:34:48.929Z,2823.75
2018-04-27T14:35:48.936Z,2683.13
2018-04-27T14:36:48.946Z,2677.50
2018-04-27T14:37:48.955Z,2548.13
2018-04-27T14:38:49.024Z,2356.88
2018-04-27T14:39:48.975Z,2418.75
2018-04-27T14:40:48.987Z,2311.88
2018-04-27T14:41:49.090Z,2221.88
2018-04-27T14:42:49.011Z,2272.50
2018-04-27T14:43:50.852Z,2705.63
2018-04-27T14:44:49.080Z,2542.50
2018-04-27T14:45:49.041Z,2266.88
2018-04-27T14:46:49.730Z,2250.00
2018-04-27T14:47:49.058Z,2497.50
2018-04-27T14:48:49.783Z,2773.13
2018-04-27T14:49:49.076Z,2632.50
2018-04-27T14:50:49.087Z,2480.63
2018-04-27T14:51:49.134Z,2469.38
2018-04-27T14:52:49.558Z,2334.38
2018-04-27T14:53:49.225Z,2548.13
2018-04-27T14:54:49.124Z,2626.88
2018-04-27T14:55:49.617Z,2688.75
2018-04-27T14:56:49.141Z,2548.13
2018-04-27T14:57:49.581Z,2638.13
2018-04-27T14:58:49.281Z,2497.50
2018-04-27T14:59:49.178Z,2238.75
2018-04-27T15:00:49.184Z,2199.38
2018-04-27T15:01:49.194Z,2356.88
2018-04-27T15:02:49.207Z,2503.13
2018-04-27T15:05:20.959Z,2542.50
2018-04-27T15:06:20.915Z,2480.63
2018-04-27T15:07:20.923Z,2362.50
2018-04-27T15:08:34.987Z,2300.63
2018-04-27T15:09:20.940Z,2272.50
2018-04-27T15:10:20.951Z,2244.38
2018-04-27T15:11:20.956Z,2289.38
2018-04-27T15:12:20.967Z,2323.13
2018-04-27T15:13:35.479Z,2407.50
2018-04-27T15:14:20.987Z,2396.25
2018-04-27T15:15:20.999Z,2289.38
2018-04-27T15:16:21.008Z,2143.13
2018-04-27T15:17:21.014Z,2058.75
2018-04-27T15:18:21.145Z,2070.00
2018-04-27T15:19:35.498Z,2086.88
2018-04-27T15:20:21.047Z,2109.38
2018-04-27T15:21:21.053Z,1535.63
2018-04-27T15:22:21.066Z,2008.13
2018-04-27T15:23:56.486Z,2182.50
2018-04-27T15:24:21.764Z,2221.88
2018-04-27T15:25:21.244Z,2160.00
2018-04-27T15:26:21.093Z,2283.75
2018-04-27T15:27:21.105Z,2390.63
2018-04-27T15:28:21.113Z,2328.75
2018-04-27T15:29:21.164Z,2345.63
2018-04-27T15:30:21.136Z,2289.38
2018-04-27T15:31:21.145Z,2143.13
2018-04-27T15:32:21.150Z,2103.75
2018-04-27T15:33:21.161Z,2193.75
2018-04-27T15:35:52.939Z,1884.38
2018-04-27T15:36:52.867Z,1895.63
2018-04-27T15:37:52.872Z,2019.38
2018-04-27T15:38:53.441Z,2041.88
2018-04-27T15:39:52.891Z,1901.25
2018-04-27T15:40:52.897Z,1856.25
2018-04-27T15:41:52.901Z,1856.25
2018-04-27T15:42:52.914Z,1783.13
2018-04-27T15:43:56.449Z,1726.88
2018-04-27T15:44:52.925Z,1665.00
2018-04-27T15:45:52.941Z,1485.00
2018-04-27T15:46:52.947Z,1355.63
2018-04-27T15:47:52.957Z,1276.88
2018-04-27T15:48:53.008Z,1226.25
2018-04-27T15:49:53.098Z,1276.88
2018-04-27T15:50:52.976Z,1074.38
2018-04-27T15:51:52.983Z,770.63
2018-04-27T15:52:52.989Z,990.00
2018-04-27T15:54:16.586Z,1265.63
2018-04-27T15:54:53.086Z,1434.38
2018-04-27T15:55:53.250Z,1366.88
2018-04-27T15:56:53.028Z,1344.38
2018-04-27T15:57:53.042Z,1423.13
2018-04-27T15:58:53.035Z,1456.88
2018-04-27T15:59:54.941Z,1417.50
2018-04-27T16:00:53.048Z,1051.88
2018-04-27T16:01:53.056Z,950.63
2018-04-27T16:02:53.066Z,832.50
2018-04-27T16:03:53.073Z,956.25
2018-04-27T16:04:53.119Z,742.50
2018-04-27T16:05:53.090Z,691.88
2018-04-27T16:06:53.090Z,669.38
2018-04-27T16:07:53.095Z,708.75
2018-04-27T16:08:53.435Z,759.38
2018-04-27T16:09:53.112Z,787.50
2018-04-27T16:10:53.116Z,815.63
2018-04-27T16:11:53.124Z,821.25
2018-04-27T16:12:53.132Z,849.38
2018-04-27T16:13:54.940Z,978.75
2018-04-27T16:14:53.224Z,945.00
2018-04-27T16:15:53.149Z,961.88
2018-04-27T16:16:53.153Z,916.88
2018-04-27T16:17:53.153Z,838.13
2018-04-27T16:18:53.222Z,821.25
2018-04-27T16:19:53.170Z,804.38
2018-04-27T16:20:53.188Z,815.63
2018-04-27T16:21:53.183Z,871.88
2018-04-27T16:22:53.194Z,928.13
2018-04-27T16:23:56.443Z,1113.75
2018-04-27T16:24:53.200Z,1057.50
2018-04-27T16:25:53.202Z,1023.75
2018-04-27T16:26:53.208Z,1029.38
2018-04-27T16:27:53.214Z,956.25
2018-04-27T16:28:53.285Z,1035.00
2018-04-27T16:29:53.225Z,1046.25
2018-04-27T16:30:53.229Z,1080.00
2018-04-27T16:31:53.236Z,1051.88
2018-04-27T16:32:53.240Z,1108.13
2018-04-27T16:33:54.944Z,1136.25
2018-04-27T16:34:53.268Z,1130.63
2018-04-27T16:35:53.263Z,1074.38
2018-04-27T16:36:53.268Z,967.50
2018-04-27T16:37:53.268Z,900.00
2018-04-27T16:38:53.330Z,770.63
2018-04-27T16:39:53.281Z,753.75
2018-04-27T16:40:53.299Z,663.75
2018-04-27T16:41:53.369Z,618.75
2018-04-27T16:42:53.297Z,495.00
2018-04-27T16:43:53.734Z,438.75
2018-04-27T16:44:53.309Z,416.25
2018-04-27T16:45:53.895Z,399.38
2018-04-27T16:46:53.317Z,399.38
2018-04-27T16:47:53.326Z,393.75
2018-04-27T16:50:24.967Z,382.50
2018-04-27T16:51:25.884Z,371.25
2018-04-27T16:52:24.931Z,365.63
2018-04-27T16:53:24.935Z,354.38
2018-04-27T16:57:33.367Z,320.63
2018-04-27T16:58:28.245Z,315.00
2018-04-27T17:03:00.171Z,337.50
2018-04-27T17:03:31.548Z,326.25
2018-04-27T17:04:31.725Z,315.00
2018-04-27T17:05:31.568Z,315.00
2018-04-27T17:06:31.572Z,303.75
2018-04-27T17:07:31.580Z,298.13
2018-04-27T17:08:31.587Z,298.13
2018-04-27T17:09:31.628Z,292.50
2018-04-27T17:10:31.639Z,281.25
2018-04-27T17:11:31.599Z,275.63
2018-04-27T17:12:31.609Z,281.25
2018-04-27T17:13:31.699Z,286.88
2018-04-27T17:14:31.613Z,298.13
2018-04-27T17:15:31.667Z,303.75
2018-04-27T17:16:31.612Z,298.13
2018-04-27T17:17:31.629Z,286.88
2018-04-27T17:18:31.623Z,275.63
2018-04-27T17:19:31.625Z,258.75
2018-04-27T17:20:31.674Z,236.25
2018-04-27T17:21:31.634Z,225.00
2018-04-27T17:22:31.686Z,219.38
2018-04-27T17:23:31.643Z,213.75
2018-04-27T17:24:31.643Z,202.50
2018-04-27T17:25:31.763Z,196.88
2018-04-27T17:26:31.770Z,185.63
2018-04-27T17:27:31.660Z,180.00
2018-04-27T17:28:31.746Z,174.38
2018-04-27T17:29:31.672Z,174.38
2018-04-27T17:30:31.715Z,168.75
2018-04-27T17:32:31.788Z,163.13
2018-04-27T17:33:31.751Z,157.50
2018-04-27T17:34:31.696Z,157.50
2018-04-27T17:35:39.768Z,157.50
2018-04-27T17:36:31.706Z,157.50
2018-04-27T17:37:31.692Z,157.50
2018-04-27T17:38:31.797Z,157.50
2018-04-27T17:39:31.697Z,157.50
2018-04-27T17:40:50.956Z,163.13
2018-04-27T17:41:31.699Z,168.75
2018-04-27T17:42:32.462Z,168.75
2018-04-27T17:43:31.778Z,168.75
2018-04-27T17:44:31.787Z,174.38
2018-04-27T17:45:40.535Z,174.38
2018-04-27T17:46:32.545Z,168.75
2018-04-27T17:47:31.817Z,168.75
2018-04-27T17:48:31.719Z,168.75
2018-04-27T17:49:31.751Z,163.13
2018-04-27T17:50:32.221Z,157.50
2018-04-27T17:51:32.458Z,151.88
2018-04-27T17:52:31.752Z,146.25
2018-04-27T17:53:32.496Z,140.63
2018-04-27T17:54:31.735Z,135.00
2018-04-27T17:55:31.982Z,135.00
2018-04-27T17:56:31.796Z,129.38
2018-04-27T17:57:32.609Z,123.75
2018-04-27T17:58:32.461Z,118.13
2018-04-27T17:59:33.616Z,112.50
2018-04-27T18:00:31.799Z,112.50
2018-04-27T18:01:32.254Z,106.88
2018-04-27T18:02:31.865Z,106.88
2018-04-27T18:03:31.832Z,101.25
2018-04-27T18:04:31.772Z,101.25
2018-04-27T18:05:31.785Z,101.25
2018-04-27T18:06:32.633Z,95.63
2018-04-27T18:07:31.841Z,95.63
2018-04-27T18:08:31.790Z,95.63
2018-04-27T18:09:32.461Z,90.00
2018-04-27T18:10:31.898Z,84.38
2018-04-27T18:11:31.819Z,78.75
2018-04-27T18:12:31.836Z,73.13
2018-04-27T18:13:31.907Z,67.50
2018-04-27T18:14:36.961Z,61.88
2018-04-27T18:15:37.461Z,56.25
2018-04-27T18:16:33.693Z,50.63
2018-04-27T18:17:32.636Z,45.00
2018-04-27T18:18:35.623Z,45.00
2018-04-27T18:19:31.804Z,39.38
2018-04-27T18:20:31.798Z,39.38
2018-04-27T18:21:31.977Z,33.75
2018-04-27T18:22:31.793Z,33.75
2018-04-27T18:23:31.797Z,28.13
2018-04-27T18:24:31.807Z,28.13
2018-04-27T18:25:31.845Z,22.50
2018-04-27T18:26:32.657Z,22.50
2018-04-27T18:27:31.923Z,16.88
2018-04-27T18:28:31.807Z,16.88
2018-04-27T18:29:31.811Z,16.88
2018-04-27T18:30:31.815Z,16.88
2018-04-27T18:31:31.819Z,11.25
2018-04-27T18:32:31.979Z,11.25
2018-04-27T18:33:31.823Z,11.25
2018-04-27T18:34:31.820Z,11.25
2018-04-27T18:35:31.896Z,11.25
2018-04-27T18:36:31.826Z,11.25
2018-04-27T18:37:31.935Z,5.63
2018-04-27T18:38:31.829Z,5.63
2018-04-27T18:39:31.828Z,5.63
2018-04-27T18:40:31.830Z,5.63
2018-04-27T18:41:31.828Z,5.63
2018-04-27T18:42:31.966Z,0.00
2018-04-27T18:43:31.833Z,0.00
2018-04-27T18:44:31.908Z,0.00
2018-04-27T18:45:31.834Z,0.00
2018-04-27T18:46:31.978Z,0.00
2018-04-27T18:47:31.877Z,0.00
2018-04-27T18:48:31.837Z,0.00
2018-04-27T18:49:31.837Z,0.00
2018-04-27T18:50:31.841Z,0.00
2018-04-27T18:51:31.836Z,0.00
2018-04-27T18:52:52.877Z,0.00
2018-04-27T18:53:31.831Z,0.00
2018-04-27T18:54:31.842Z,0.00
2018-04-27T18:55:31.838Z,0.00
2018-04-27T18:56:31.834Z,0.00
2018-04-27T18:57:31.881Z,0.00
2018-04-27T18:58:31.833Z,0.00
2018-04-27T18:59:31.838Z,0.00
2018-04-27T19:00:31.838Z,0.00
2018-04-27T19:01:31.840Z,0.00
2018-04-27T19:02:32.866Z,0.00
2018-04-27T19:03:31.836Z,0.00
2018-04-27T19:04:31.840Z,0.00
2018-04-27T19:05:31.843Z,0.00
2018-04-27T19:06:31.839Z,0.00
2018-04-27T19:07:31.899Z,0.00
2018-04-27T19:08:31.840Z,0.00
2018-04-27T19:09:31.838Z,0.00
2018-04-27T19:10:31.863Z,0.00
2018-04-27T19:11:31.848Z,0.00
2018-04-27T19:12:31.891Z,0.00
2018-04-27T19:13:31.840Z,0.00
2018-04-27T19:14:32.170Z,0.00
2018-04-27T19:15:31.839Z,0.00
2018-04-27T19:16:31.841Z,0.00
2018-04-27T19:17:32.696Z,0.00
2018-04-27T19:18:31.841Z,0.00
2018-04-27T19:19:31.845Z,0.00
2018-04-27T19:20:31.843Z,0.00
2018-04-27T19:21:31.840Z,0.00
2018-04-27T19:23:00.861Z,0.00
2018-04-27T19:23:31.842Z,0.00
2018-04-27T19:24:31.839Z,0.00
2018-04-27T19:25:31.850Z,0.00
2018-04-27T19:26:31.846Z,0.00
2018-04-27T19:27:32.188Z,0.00
2018-04-27T19:28:31.844Z,0.00
2018-04-27T19:29:31.915Z,0.00
2018-04-27T19:30:31.841Z,0.00
2018-04-27T19:31:31.841Z,0.00
2018-04-27T19:32:52.888Z,0.00
2018-04-27T19:33:31.834Z,0.00
2018-04-27T19:34:31.840Z,0.00
2018-04-27T19:35:31.837Z,0.00
2018-04-27T19:36:31.837Z,0.00
2018-04-27T19:37:31.966Z,0.00
2018-04-27T19:38:31.835Z,0.00
2018-04-27T19:39:31.838Z,0.00
2018-04-27T19:40:31.834Z,0.00
2018-04-27T19:41:31.832Z,0.00
2018-04-27T19:42:31.893Z,0.00
2018-04-27T19:43:31.990Z,0.00
2018-04-27T19:44:31.835Z,0.00
2018-04-27T19:45:31.835Z,0.00
2018-04-27T19:46:31.832Z,0.00
2018-04-27T19:47:50.187Z,0.00
2018-04-27T19:48:31.832Z,0.00
2018-04-27T19:49:31.827Z,0.00
2018-04-27T19:50:31.848Z,0.00
2018-04-27T19:51:31.828Z,0.00
2018-04-27T19:52:33.694Z,0.00
2018-04-27T19:53:31.832Z,0.00
2018-04-27T19:54:31.828Z,0.00
2018-04-27T19:55:31.828Z,0.00
2018-04-27T19:56:31.830Z,0.00
2018-04-27T19:57:31.879Z,0.00
2018-04-27T19:58:31.829Z,0.00
2018-04-27T19:59:31.829Z,0.00
2018-04-27T20:00:31.819Z,0.00
2018-04-27T20:01:31.821Z,0.00
2018-04-27T20:02:32.201Z,0.00
2018-04-27T20:03:31.818Z,0.00
2018-04-27T20:04:31.824Z,0.00
2018-04-27T20:05:31.824Z,0.00
2018-04-27T20:06:31.817Z,0.00
2018-04-27T20:07:33.445Z,0.00
2018-04-27T20:08:31.903Z,0.00
2018-04-27T20:09:31.818Z,0.00
2018-04-27T20:10:31.822Z,0.00
2018-04-27T20:11:31.816Z,0.00
2018-04-27T20:12:50.185Z,0.00
2018-04-27T20:13:31.814Z,0.00
2018-04-27T20:14:31.819Z,0.00
2018-04-27T20:15:31.806Z,0.00
2018-04-27T20:16:31.814Z,0.00
2018-04-27T20:17:32.683Z,0.00
2018-04-27T20:18:31.889Z,0.00
2018-04-27T20:19:31.807Z,0.00
2018-04-27T20:20:31.808Z,0.00
2018-04-27T20:21:31.809Z,0.00
2018-04-27T20:22:33.695Z,0.00
2018-04-27T20:23:31.807Z,0.00
2018-04-27T20:24:31.804Z,0.00
2018-04-27T20:25:31.800Z,0.00
2018-04-27T20:26:31.800Z,0.00
2018-04-27T20:27:40.664Z,0.00
2018-04-27T20:28:31.799Z,0.00
2018-04-27T20:29:31.861Z,0.00
2018-04-27T20:30:32.672Z,0.00
2018-04-27T20:31:31.796Z,0.00
2018-04-27T20:32:32.232Z,0.00
2018-04-27T20:33:31.865Z,0.00
2018-04-27T20:34:31.798Z,0.00
2018-04-27T20:35:31.791Z,0.00
2018-04-27T20:36:31.793Z,0.00
2018-04-27T20:37:31.786Z,0.00
2018-04-27T20:38:56.187Z,0.00
2018-04-27T20:39:31.788Z,0.00
2018-04-27T20:40:32.368Z,0.00
2018-04-27T20:41:31.785Z,0.00
2018-04-27T20:42:53.689Z,0.00
2018-04-27T20:43:31.785Z,0.00
2018-04-27T20:44:31.782Z,0.00
2018-04-27T20:45:31.785Z,0.00
2018-04-27T20:46:31.778Z,0.00
2018-04-27T20:47:32.462Z,0.00
2018-04-27T20:48:32.735Z,0.00
2018-04-27T20:49:31.782Z,0.00
2018-04-27T20:50:31.774Z,0.00
2018-04-27T20:51:31.772Z,0.00
2018-04-27T20:52:37.191Z,0.00
2018-04-27T20:53:31.774Z,0.00
2018-04-27T20:54:31.770Z,0.00
2018-04-27T20:55:31.779Z,0.00
2018-04-27T20:56:31.767Z,0.00
2018-04-27T20:57:31.825Z,0.00
2018-04-27T20:58:31.772Z,0.00
2018-04-27T20:59:31.771Z,0.00
2018-04-27T21:00:31.763Z,0.00
2018-04-27T21:01:31.767Z,0.00
2018-04-27T21:02:33.689Z,0.00
2018-04-27T21:03:31.764Z,0.00
2018-04-27T21:04:31.760Z,0.00
2018-04-27T21:05:31.759Z,0.00
2018-04-27T21:06:31.756Z,0.00
2018-04-27T21:07:32.689Z,0.00
2018-04-27T21:08:31.752Z,0.00
2018-04-27T21:09:31.752Z,0.00
2018-04-27T21:10:31.751Z,0.00
2018-04-27T21:11:31.749Z,0.00
2018-04-27T21:12:52.809Z,0.00
2018-04-27T21:13:31.748Z,0.00
2018-04-27T21:14:31.744Z,0.00
2018-04-27T21:15:32.636Z,0.00
2018-04-27T21:16:31.742Z,0.00
2018-04-27T21:17:46.200Z,0.00
2018-04-27T21:18:31.745Z,0.00
2018-04-27T21:19:31.740Z,0.00
2018-04-27T21:20:31.741Z,0.00
2018-04-27T21:21:31.738Z,0.00
2018-04-27T21:22:31.781Z,0.00
2018-04-27T21:23:31.723Z,0.00
2018-04-27T21:24:31.738Z,0.00
2018-04-27T21:25:31.734Z,0.00
2018-04-27T21:26:32.194Z,0.00
2018-04-27T21:27:31.725Z,0.00